createdAt,value
2022-09-07T00:00:43.483Z,54.20
2022-09-07T00:05:48.015Z,54.20
2022-09-07T00:10:53.166Z,54.40
2022-09-07T00:15:55.529Z,54.40
2022-09-07T00:21:00.420Z,54.40
2022-09-07T00:26:08.525Z,54.50
2022-09-07T00:31:14.118Z,54.50
2022-09-07T00:36:18.470Z,54.60
2022-09-07T00:41:22.313Z,54.60
2022-09-07T00:46:27.729Z,54.60
2022-09-07T00:51:39.466Z,54.60
2022-09-07T00:56:44.097Z,54.90
2022-09-07T01:01:46.668Z,54.90
2022-09-07T01:06:50.270Z,55.00
2022-09-07T01:11:57.396Z,55.10
2022-09-07T01:17:15.136Z,55.40
2022-09-07T01:28:07.512Z,55.00
2022-09-07T01:49:12.010Z,55.20
2022-09-07T01:54:22.818Z,56.00
2022-09-07T01:59:33.236Z,55.90
2022-09-07T02:04:41.966Z,56.30
2022-09-07T02:09:58.022Z,56.60
2022-09-07T02:15:04.926Z,57.50
2022-09-07T02:20:13.375Z,57.40
2022-09-07T02:25:23.816Z,57.80
2022-09-07T02:30:26.183Z,57.50
2022-09-07T02:35:28.544Z,57.90
2022-09-07T02:40:31.411Z,57.60
2022-09-07T02:45:58.304Z,57.50
2022-09-07T02:56:51.068Z,57.40
2022-09-07T03:07:18.255Z,57.10
2022-09-07T03:12:21.176Z,56.90
2022-09-07T03:17:23.423Z,56.90
2022-09-07T03:22:25.684Z,56.90
2022-09-07T03:27:27.971Z,56.90
2022-09-07T03:32:33.416Z,56.90
2022-09-07T03:37:36.790Z,56.90
2022-09-07T03:42:39.215Z,57.00
2022-09-07T03:47:41.508Z,57.10
2022-09-07T03:52:43.778Z,57.10
2022-09-07T03:57:46.146Z,57.10
2022-09-07T04:02:48.438Z,57.00
2022-09-07T04:07:50.822Z,57.10
2022-09-07T04:12:53.266Z,57.10
2022-09-07T04:17:55.522Z,57.00
2022-09-07T04:22:57.842Z,57.60
2022-09-07T04:28:00.169Z,57.60
2022-09-07T04:33:02.480Z,57.70
2022-09-07T04:38:05.303Z,57.70
2022-09-07T04:43:09.568Z,58.40
2022-09-07T04:48:11.817Z,58.90
2022-09-07T04:53:14.075Z,59.70
2022-09-07T04:58:16.345Z,60.20
2022-09-07T05:03:18.647Z,60.50
2022-09-07T05:08:21.072Z,60.00
2022-09-07T05:13:24.094Z,60.10
2022-09-07T05:18:26.779Z,60.50
2022-09-07T05:23:29.067Z,61.00
2022-09-07T05:28:31.905Z,61.40
2022-09-07T05:38:59.063Z,61.10
2022-09-07T05:49:24.060Z,60.20
2022-09-07T05:54:26.704Z,60.10
2022-09-07T05:59:29.003Z,60.20
2022-09-07T06:04:31.587Z,60.50
2022-09-07T06:09:34.137Z,62.00
2022-09-07T06:14:36.449Z,61.50
2022-09-07T06:19:38.718Z,60.50
2022-09-07T06:24:41.002Z,60.70
2022-09-07T06:29:43.305Z,61.50
2022-09-07T06:34:45.582Z,61.10
2022-09-07T06:39:49.622Z,59.00
2022-09-07T06:44:51.987Z,59.80
2022-09-07T06:49:54.288Z,60.40
2022-09-07T07:00:04.611Z,51.50
2022-09-07T07:05:07.072Z,53.70
2022-09-07T07:10:09.939Z,50.10
2022-09-07T07:15:12.186Z,49.70
2022-09-07T07:20:14.500Z,48.60
2022-09-07T07:25:17.049Z,49.70
2022-09-07T07:30:20.556Z,47.60
2022-09-07T07:35:22.927Z,46.80
2022-09-07T07:40:30.330Z,46.40
2022-09-07T07:51:09.896Z,43.60
2022-09-07T07:56:14.823Z,44.70
2022-09-07T08:01:18.189Z,45.60
2022-09-07T08:06:21.672Z,46.70
2022-09-07T08:11:24.115Z,47.40
2022-09-07T08:16:26.341Z,49.10
2022-09-07T08:21:28.594Z,49.00
2022-09-07T08:26:30.903Z,50.70
2022-09-07T08:31:33.164Z,50.00
2022-09-07T08:36:35.449Z,50.60
2022-09-07T08:52:46.033Z,51.70
2022-09-07T08:57:55.730Z,51.40
2022-09-07T09:19:15.524Z,51.10
2022-09-07T09:24:19.683Z,51.90
2022-09-07T09:29:23.675Z,51.90
2022-09-07T09:34:29.317Z,51.60
2022-09-07T09:39:37.108Z,53.40
2022-09-07T09:44:39.866Z,52.60
2022-09-07T09:49:44.849Z,53.70
2022-09-07T09:54:52.394Z,53.40
2022-09-07T10:00:06.909Z,53.40
2022-09-07T10:05:26.623Z,54.60
2022-09-07T10:10:30.229Z,54.00
2022-09-07T10:15:41.248Z,54.60
2022-09-07T10:20:43.826Z,54.70
2022-09-07T10:25:47.517Z,55.10
2022-09-07T10:41:37.030Z,55.00
2022-09-07T10:52:22.850Z,54.90
2022-09-07T11:08:19.984Z,55.60
2022-09-07T11:13:28.915Z,55.90
2022-09-07T11:18:38.308Z,55.50
2022-09-07T11:23:45.503Z,55.30
2022-09-07T11:39:21.669Z,55.50
2022-09-07T11:45:02.762Z,55.10
2022-09-07T11:50:14.143Z,55.70
2022-09-07T11:55:28.499Z,55.20
2022-09-07T12:00:47.941Z,54.90
2022-09-07T12:27:04.583Z,55.80
2022-09-07T12:37:41.721Z,53.40
2022-09-07T12:42:43.928Z,54.00
2022-09-07T12:47:57.525Z,54.40
2022-09-07T12:53:23.644Z,54.70
2022-09-07T12:58:55.359Z,55.70
2022-09-07T13:14:52.514Z,53.90
2022-09-07T13:35:48.908Z,53.80
2022-09-07T13:40:53.798Z,54.70
2022-09-07T13:51:30.275Z,55.00
2022-09-07T14:02:22.200Z,54.60
2022-09-07T14:07:26.995Z,55.30
2022-09-07T14:12:30.609Z,55.60
2022-09-07T14:17:33.190Z,55.90
2022-09-07T14:22:35.699Z,56.00
2022-09-07T14:27:41.372Z,56.10
2022-09-07T14:32:44.985Z,55.90
2022-09-07T14:37:48.255Z,56.10
2022-09-07T14:42:52.375Z,55.80
2022-09-07T14:47:56.516Z,56.00
2022-09-07T14:58:25.548Z,55.70
2022-09-07T15:03:35.485Z,55.90
2022-09-07T15:08:48.546Z,56.50
2022-09-07T15:13:58.375Z,56.70
2022-09-07T15:24:11.406Z,57.00
2022-09-07T15:29:15.523Z,56.40
2022-09-07T15:34:20.399Z,56.20
2022-09-07T15:39:25.767Z,56.50
2022-09-07T15:44:28.657Z,56.10
2022-09-07T15:49:30.897Z,56.40
2022-09-07T15:54:35.024Z,56.50
2022-09-07T15:59:39.264Z,56.70
2022-09-07T16:04:41.659Z,56.30
2022-09-07T16:09:44.067Z,56.00
2022-09-07T16:14:46.462Z,56.20
2022-09-07T16:19:48.665Z,57.00
2022-09-07T16:24:50.961Z,57.00
2022-09-07T16:29:53.375Z,56.80
2022-09-07T16:34:55.642Z,57.40
2022-09-07T16:39:57.904Z,57.90
2022-09-07T16:50:23.538Z,57.60
2022-09-07T16:55:26.002Z,57.20
2022-09-07T17:00:32.345Z,57.30
2022-09-07T17:05:40.511Z,57.50
2022-09-07T17:10:42.948Z,57.80
2022-09-07T17:15:45.315Z,58.10
2022-09-07T17:20:56.675Z,57.80
2022-09-07T17:26:13.860Z,57.80
2022-09-07T17:36:44.213Z,58.30
2022-09-07T17:41:48.563Z,57.80
2022-09-07T17:46:51.056Z,57.80
2022-09-07T17:51:53.254Z,57.60
2022-09-07T17:56:55.539Z,57.80
2022-09-07T18:01:58.322Z,57.90
2022-09-07T18:07:00.542Z,57.50
2022-09-07T18:12:03.088Z,57.70
2022-09-07T18:17:05.892Z,57.20
2022-09-07T18:22:08.824Z,57.20
2022-09-07T18:27:11.181Z,56.80
2022-09-07T18:32:13.442Z,56.60
2022-09-07T18:37:15.758Z,56.70
2022-09-07T18:42:18.007Z,57.00
2022-09-07T18:47:27.224Z,57.00
2022-09-07T18:57:52.752Z,56.90
2022-09-07T19:02:54.983Z,57.20
2022-09-07T19:07:57.532Z,57.10
2022-09-07T19:12:59.831Z,57.60
2022-09-07T19:18:04.687Z,57.50
2022-09-07T19:23:07.034Z,57.70
2022-09-07T19:28:09.414Z,57.60
2022-09-07T19:33:12.500Z,57.10
2022-09-07T19:38:14.909Z,56.90
2022-09-07T19:43:17.135Z,57.00
2022-09-07T19:48:19.399Z,57.60
2022-09-07T19:53:21.626Z,58.00
2022-09-07T19:58:23.843Z,57.90
2022-09-07T20:03:26.164Z,58.30
2022-09-07T20:08:29.992Z,57.90
2022-09-07T20:13:32.728Z,57.90
2022-09-07T20:18:36.148Z,57.70
2022-09-07T20:23:38.939Z,57.20
2022-09-07T20:28:43.379Z,57.20
2022-09-07T20:33:46.900Z,57.10
2022-09-07T20:38:52.981Z,56.80
2022-09-07T20:43:56.870Z,56.60
2022-09-07T20:48:59.260Z,56.30
2022-09-07T20:54:01.633Z,56.20
2022-09-07T20:59:04.022Z,56.10
2022-09-07T21:04:06.493Z,55.80
2022-09-07T21:09:08.748Z,56.00
2022-09-07T21:14:13.007Z,56.10
2022-09-07T21:19:15.875Z,56.10
2022-09-07T21:24:21.887Z,55.90
2022-09-07T21:29:25.732Z,55.80
2022-09-07T21:34:27.962Z,55.90
2022-09-07T21:39:30.226Z,55.90
2022-09-07T21:44:32.504Z,55.80
2022-09-07T21:49:34.719Z,55.80
2022-09-07T21:54:38.245Z,55.70
2022-09-07T21:59:40.474Z,55.70
2022-09-07T22:04:42.682Z,55.80
2022-09-07T22:09:45.149Z,55.80
2022-09-07T22:14:47.779Z,56.00
2022-09-07T22:19:50.195Z,55.80
2022-09-07T22:24:52.432Z,55.70
2022-09-07T22:29:55.381Z,55.80
2022-09-07T22:34:57.575Z,55.90
2022-09-07T22:39:59.808Z,55.90
2022-09-07T22:45:02.114Z,56.00
2022-09-07T22:50:04.581Z,56.00
2022-09-07T22:55:07.410Z,56.30
2022-09-07T23:00:10.462Z,56.10
2022-09-07T23:05:12.803Z,56.20
2022-09-07T23:10:15.311Z,56.40
2022-09-07T23:15:17.572Z,56.30
2022-09-07T23:20:20.085Z,56.70
2022-09-07T23:25:22.697Z,56.40
2022-09-07T23:30:25.043Z,56.50
2022-09-07T23:35:27.282Z,56.70
2022-09-07T23:40:30.554Z,57.20
2022-09-07T23:45:32.767Z,56.70
2022-09-07T23:50:35.183Z,57.00
2022-09-07T23:55:38.064Z,57.30
